Latest Weather Observations for Longreach

IDQ60801

Issued at 8:22 am EST Tuesday 27 October 2020 (issued every 10 minutes, with the page automatically refreshed every 10 minutes)

About weather observations | Map of weather stations | Latest weather observations for QLD | Other Formats
Station Details ID: 036031 Name: LONGREACH AERO Lat: -23.44 Lon: 144.28 Height: 192.2 m
Data from the previous 72 hours. | See also: Recent months at Longreach
Date/Time
EST
Temp
°C
App
Temp
°C
Dew
Point
°C
Rel
Hum
%
Delta-T
°C
Wind Press
QNH
hPa
Press
MSL
hPa
Rain since
9am
mm
Dir  Spd
km/h
Gust
km/h
Spd
kts
Gust
kts
27/08:00am 20.3 16.2 2.2 30 8.4 SSW 13 17 7 9 1016.4 1015.4 0.0
27/07:30am 19.8 16.0 3.9 35 7.7 SW 13 19 7 10 1016.1 1015.1 0.0
27/07:00am 18.6 14.3 5.1 41 6.6 SW 17 19 9 10 1015.8 1014.8 0.0
27/06:30am 18.2 14.7 5.4 43 6.3 SSW 13 22 7 12 1015.1 1014.0 0.0
27/06:00am 18.4 14.3 4.6 40 6.7 SW 15 22 8 12 1014.8 1013.8 0.0
27/05:30am 18.7 13.8 4.1 38 7.0 SW 19 26 10 14 1014.8 1013.8 0.0
27/05:00am 18.7 15.4 4.5 39 6.9 SSW 11 15 6 8 1014.1 1013.1 0.0
27/04:30am 18.8 14.8 4.9 40 6.8 SW 15 20 8 11 1013.7 1012.7 0.0
27/04:00am 19.1 16.2 4.5 38 7.1 SSW 9 11 5 6 1013.3 1012.3 0.0
27/03:30am 19.3 16.0 4.6 38 7.1 SSW 11 15 6 8 1013.4 1012.4 0.0
27/03:00am 19.6 16.3 4.5 37 7.3 S 11 15 6 8 1013.0 1012.0 0.0
27/02:30am 20.2 16.5 4.7 36 7.6 SW 13 15 7 8 1013.4 1012.4 0.0
27/02:00am 20.8 17.9 4.4 34 8.0 SW 9 13 5 7 1013.4 1012.4 0.0
27/01:30am 21.2 18.2 3.9 32 8.4 S 9 13 5 7 1013.2 1012.2 0.0
27/01:00am 21.4 18.0 4.0 32 8.5 SSW 11 13 6 7 1013.5 1012.5 0.0
27/12:30am 21.9 18.1 4.0 31 8.8 SSE 13 17 7 9 1013.5 1012.5 0.0
27/12:00am 21.9 18.2 4.5 32 8.6 S 13 15 7 8 1013.9 1012.9 0.0
 
Date/Time
EST
Temp
°C
App
Temp
°C
Dew
Point
°C
Rel
Hum
%
Delta-T
°C
Wind Press
QNH
hPa
Press
MSL
hPa
Rain since
9am
mm
Dir  Spd
km/h
Gust
km/h
Spd
kts
Gust
kts
26/11:30pm 22.5 18.8 4.5 31 8.9 S 13 19 7 10 1014.1 1013.1 0.0
26/11:00pm 22.8 18.7 4.3 30 9.2 S 15 24 8 13 1014.1 1013.1 0.0
26/10:30pm 23.0 19.4 5.0 31 9.0 SSW 13 17 7 9 1014.3 1013.3 0.0
26/10:00pm 23.3 19.7 4.8 30 9.3 SSW 13 17 7 9 1014.2 1013.2 0.0
26/09:30pm 22.9 19.3 4.9 31 9.0 SSW 13 17 7 9 1014.1 1013.1 0.0
26/09:00pm 22.9 19.7 4.9 31 9.0 SSW 11 17 6 9 1014.0 1013.0 0.0
26/08:30pm 23.2 19.5 4.7 30 9.3 SW 13 15 7 8 1013.8 1012.8 0.0
26/08:00pm 24.4 20.7 4.2 27 10.1 SSW 13 17 7 9 1012.9 1011.9 0.0
26/07:30pm 24.4 20.7 4.2 27 10.1 SSW 13 15 7 8 1012.4 1011.4 0.0
26/07:00pm 25.5 21.6 3.5 24 10.9 SSW 13 17 7 9 1012.1 1011.1 0.0
26/06:39pm 26.1 21.4 3.4 23 11.3 SSW 17 22 9 12 1011.8 1010.8 0.0
26/06:30pm 26.5 21.9 3.7 23 11.4 SSW 17 22 9 12 1011.8 1010.8 0.0
26/06:20pm 26.8 22.3 4.0 23 11.5 SW 17 20 9 11 1011.6 1010.6 0.0
26/06:00pm 27.4 22.3 3.2 21 12.1 SW 19 26 10 14 1011.3 1010.3 0.0
26/05:30pm 28.2 23.4 2.4 19 12.8 SW 17 28 9 15 1010.8 1009.7 0.0
26/05:00pm 28.9 23.6 3.0 19 13.1 SW 20 28 11 15 1010.8 1009.7 0.0
26/04:30pm 28.9 24.8 4.4 21 12.6 SW 15 24 8 13 1010.7 1009.6 0.0
26/04:00pm 28.7 24.4 3.5 20 12.8 SW 15 26 8 14 1010.7 1009.6 0.0
26/03:30pm 28.7 24.3 4.9 22 12.4 SW 17 28 9 15 1011.2 1010.2 0.0
26/03:00pm 28.9 24.0 5.1 22 12.4 WSW 20 33 11 18 1011.5 1010.5 0.0
26/02:30pm 29.4 24.7 6.1 23 12.4 WSW 20 33 11 18 1011.7 1010.7 0.0
26/02:00pm 28.7 24.1 5.5 23 12.2 SW 19 30 10 16 1012.1 1011.1 0.0
26/01:30pm 29.1 25.2 7.1 25 11.9 WSW 17 30 9 16 1012.4 1011.4 0.0
26/01:00pm 28.5 23.0 6.0 24 11.9 WSW 24 35 13 19 1012.7 1011.7 0.0
26/12:30pm 27.8 22.3 6.0 25 11.5 SW 24 37 13 20 1013.2 1012.2 0.0
26/12:00pm 28.0 24.3 7.8 28 11.0 SW 17 28 9 15 1013.5 1012.5 0.0
26/11:30am 27.5 24.7 8.4 30 10.5 WSW 13 26 7 14 1013.9 1012.9 0.0
26/11:00am 26.5 24.0 8.0 31 10.0 S 11 20 6 11 1014.5 1013.5 0.0
26/10:30am 25.1 22.1 7.7 33 9.3 SSE 13 22 7 12 1014.6 1013.6 0.0
26/10:00am 24.6 20.8 7.7 34 9.0 SSE 17 26 9 14 1014.8 1013.8 0.0
26/09:30am 23.9 19.9 8.3 37 8.4 SSE 19 28 10 15 1015.1 1014.0 0.0
26/09:00am 22.5 17.8 7.9 39 7.7 SSE 22 30 12 16 1014.9 1013.9 0.0
26/08:30am 21.8 16.7 7.6 40 7.4 SSE 24 32 13 17 1014.8 1013.8 0.0
26/08:00am 20.4 15.2 7.4 43 6.7 SSE 24 33 13 18 1014.4 1013.4 0.0
26/07:30am 19.0 13.7 6.8 45 6.2 S 24 33 13 18 1014.1 1013.1 0.0
26/07:00am 18.0 13.7 7.7 51 5.3 S 20 28 11 15 1014.0 1013.0 0.0
26/06:30am 16.6 13.4 8.6 59 4.1 SSW 15 19 8 10 1013.8 1012.8 0.0
26/06:00am 15.7 12.6 8.7 63 3.6 SSW 15 19 8 10 1013.6 1012.6 0.0
26/05:30am 16.0 12.9 8.7 62 3.8 SSW 15 19 8 10 1013.2 1012.2 0.0
26/05:00am 16.2 13.6 9.4 64 3.6 SSW 13 17 7 9 1012.9 1011.9 0.0
26/04:30am 16.6 14.1 9.8 64 3.6 SSW 13 17 7 9 1012.6 1011.6 0.0
26/04:00am 16.5 14.1 9.9 65 3.5 SW 13 15 7 8 1012.3 1011.3 0.0
26/03:30am 17.3 15.6 9.7 61 4.0 SSW 9 13 5 7 1012.2 1011.2 0.0
26/03:00am 18.0 16.3 9.9 59 4.3 S 9 13 5 7 1011.9 1010.9 0.0
26/02:30am 18.4 16.3 9.7 57 4.6 SSE 11 13 6 7 1011.6 1010.6 0.0
26/02:00am 18.8 17.5 9.8 56 4.8 SSE 7 11 4 6 1011.7 1010.7 0.0
26/01:30am 19.8 16.9 9.7 52 5.4 S 15 17 8 9 1011.8 1010.8 0.0
26/01:00am 20.4 17.5 9.6 50 5.8 S 15 20 8 11 1012.0 1011.0 0.0
26/12:30am 20.7 17.4 9.6 49 6.0 S 17 22 9 12 1012.0 1011.0 0.0
26/12:00am 21.3 18.1 9.9 48 6.2 S 17 20 9 11 1012.2 1011.2 0.0
 
Date/Time
EST
Temp
°C
App
Temp
°C
Dew
Point
°C
Rel
Hum
%
Delta-T
°C
Wind Press
QNH
hPa
Press
MSL
hPa
Rain since
9am
mm
Dir  Spd
km/h
Gust
km/h
Spd
kts
Gust
kts
25/11:30pm 21.5 18.2 9.7 47 6.4 S 17 20 9 11 1012.5 1011.5 0.0
25/11:00pm 21.7 18.9 9.9 47 6.4 SSW 15 19 8 10 1012.7 1011.7 0.0
25/10:30pm 22.4 19.6 9.9 45 6.8 SSW 15 20 8 11 1012.6 1011.6 0.0
25/10:00pm 23.0 20.2 10.1 44 7.1 SSW 15 19 8 10 1012.6 1011.6 0.0
25/09:30pm 23.5 20.7 9.9 42 7.5 SSW 15 20 8 11 1012.4 1011.4 0.0
25/09:00pm 24.0 21.1 9.6 40 7.9 SSW 15 19 8 10 1012.1 1011.1 0.0
25/08:30pm 24.2 21.2 9.4 39 8.1 SSW 15 19 8 10 1011.8 1010.8 0.0
25/08:00pm 25.0 22.3 8.9 36 8.8 SSW 13 17 7 9 1011.7 1010.7 0.0
25/07:30pm 25.6 22.9 9.0 35 9.1 SSW 13 17 7 9 1011.5 1010.5 0.0
25/07:00pm 26.5 23.2 9.4 34 9.5 SW 17 24 9 13 1011.3 1010.3 0.0
25/06:30pm 27.3 23.3 9.2 32 10.0 SW 20 30 11 16 1011.0 1010.0 0.0
25/06:00pm 28.1 23.2 9.9 32 10.3 SW 26 32 14 17 1010.7 1009.6 0.0
25/05:30pm 28.7 24.2 9.9 31 10.6 SSW 24 33 13 18 1010.3 1009.2 0.0
25/05:00pm 29.1 25.1 10.3 31 10.7 SW 22 32 12 17 1010.1 1009.0 0.0
25/04:30pm 29.2 25.2 10.3 31 10.8 WSW 22 32 12 17 1010.0 1008.9 0.0
25/04:00pm 29.7 23.9 10.8 31 10.9 WSW 32 41 17 22 1010.1 1009.0 0.0
25/03:30pm 29.3 25.8 10.9 32 10.6 SW 20 32 11 17 1010.3 1009.2 0.0
25/03:00pm 30.5 26.5 11.9 31 11.0 WSW 24 39 13 21 1010.4 1009.3 0.0
25/02:31pm 29.6 24.8 11.6 33 10.5 WSW 28 46 15 25 1010.7 1009.6 0.0
25/02:30pm 29.2 24.5 10.8 32 10.6 WSW 26 46 14 25 1010.8 1009.7 0.0
25/02:00pm 30.5 25.9 12.4 33 10.7 W 28 46 15 25 1011.1 1010.1 0.0
25/01:55pm 30.0 25.5 11.5 32 10.8 WSW 26 46 14 25 1011.2 1010.2 0.0
25/01:30pm 29.8 25.6 12.3 34 10.3 WSW 26 39 14 21 1011.5 1010.5 0.0
25/01:00pm 29.5 26.3 12.0 34 10.3 WSW 20 33 11 18 1011.7 1010.7 0.0
25/12:30pm 28.6 25.3 11.6 34 9.9 W 20 33 11 18 1012.0 1011.0 0.0
25/12:00pm 28.3 26.0 11.8 36 9.6 WSW 15 26 8 14 1012.5 1011.5 0.0
25/11:30am 27.7 26.1 12.9 40 8.7 SSW 13 19 7 10 1012.8 1011.8 0.0
25/11:00am 26.9 26.1 12.9 42 8.2 SE 9 20 5 11 1013.3 1012.3 0.0
25/10:30am 26.8 25.4 13.5 44 7.9 W 13 17 7 9 1013.6 1012.6 0.0
25/10:00am 25.9 24.4 13.1 45 7.5 S 13 24 7 13 1014.0 1013.0 0.0
25/09:30am 24.9 23.4 13.1 48 6.9 WSW 13 20 7 11 1014.2 1013.2 0.0
25/09:00am 24.5 23.1 13.4 50 6.5 SE 13 20 7 11 1014.2 1013.2 0.2
25/08:30am 23.6 21.9 13.5 53 5.9 SSE 15 24 8 13 1013.9 1012.9 0.2
25/08:00am 22.7 21.7 14.5 60 4.9 SSE 13 19 7 10 1013.6 1012.6 0.2
25/07:30am 21.2 20.0 14.1 64 4.2 SSE 13 19 7 10 1013.2 1012.2 0.2
25/07:00am 20.0 19.2 14.1 69 3.4 S 11 15 6 8 1012.9 1011.9 0.2
25/06:30am 18.7 18.0 14.2 75 2.6 SSW 11 13 6 7 1012.4 1011.4 0.2
25/06:00am 18.3 17.1 14.0 76 2.5 S 13 13 7 7 1011.7 1010.7 0.2
25/05:30am 18.4 18.4 13.7 74 2.7 SW 6 7 3 4 1011.7 1010.7 0.2
25/05:00am 18.9 18.0 13.7 72 3.0 SSW 11 13 6 7 1011.4 1010.4 0.2
25/04:30am 19.3 19.1 13.7 70 3.2 NE 7 9 4 5 1011.1 1010.1 0.2
25/04:00am 19.4 19.1 13.3 68 3.5 SE 7 11 4 6 1010.9 1009.8 0.2
25/03:30am 20.0 19.7 13.2 65 3.9 SSW 7 9 4 5 1010.8 1009.7 0.2
25/03:00am 20.6 19.6 13.3 63 4.2 SSW 11 15 6 8 1010.5 1009.4 0.2
25/02:30am 21.1 18.9 13.3 61 4.5 SW 17 22 9 12 1010.3 1009.2 0.2
25/02:00am 21.2 19.0 13.4 61 4.5 SW 17 22 9 12 1010.1 1009.0 0.2
25/01:30am 21.4 19.4 13.8 62 4.4 SW 17 24 9 13 1010.0 1008.9 0.2
25/01:00am 22.2 20.7 14.1 60 4.8 SW 15 19 8 10 1010.5 1009.4 0.2
25/12:30am 22.5 21.5 14.6 61 4.7 SW 13 15 7 8 1010.7 1009.6 0.2
25/12:00am 22.4 22.6 15.7 66 4.1 WSW 9 13 5 7 1010.7 1009.6 0.2
 
Date/Time
EST
Temp
°C
App
Temp
°C
Dew
Point
°C
Rel
Hum
%
Delta-T
°C
Wind Press
QNH
hPa
Press
MSL
hPa
Rain since
9am
mm
Dir  Spd
km/h
Gust
km/h
Spd
kts
Gust
kts
24/11:30pm 22.7 23.2 15.5 64 4.3 WNW 7 9 4 5 1010.8 1009.7 0.2
24/11:00pm 22.9 22.7 15.7 64 4.4 WSW 11 15 6 8 1010.7 1009.6 0.2
24/10:30pm 23.4 23.7 16.9 67 4.0 SW 11 15 6 8 1010.4 1009.3 0.2
24/10:00pm 24.0 24.5 17.5 67 4.1 WSW 11 13 6 7 1010.3 1009.2 0.2
24/09:30pm 24.6 25.8 18.3 68 4.0 SW 9 13 5 7 1010.0 1008.9 0.2
24/09:00pm 24.9 26.4 18.8 69 3.9 SW 9 13 5 7 1009.8 1008.7 0.2
24/08:30pm 25.6 26.3 18.8 66 4.4 SW 13 15 7 8 1009.4 1008.4 0.2
24/08:00pm 26.1 26.8 18.8 64 4.7 SW 13 19 7 10 1009.1 1008.1 0.2
24/07:30pm 26.9 27.1 18.5 60 5.4 SSW 15 20 8 11 1008.6 1007.6 0.2
24/07:00pm 27.4 27.5 18.4 58 5.8 SW 15 19 8 10 1008.4 1007.4 0.2
24/06:30pm 28.2 27.3 18.3 55 6.4 SW 20 30 11 16 1008.1 1007.1 0.2
24/06:00pm 29.0 27.8 18.4 52 6.9 SW 22 30 12 16 1007.8 1006.8 0.2
24/05:30pm 29.7 27.9 18.8 52 7.1 WSW 26 33 14 18 1007.8 1006.8 0.2
24/05:00pm 29.7 28.2 18.5 51 7.3 WSW 24 35 13 19 1007.8 1006.8 0.2
24/04:30pm 29.7 28.9 18.5 51 7.3 WSW 20 33 11 18 1007.8 1006.8 0.2
24/04:00pm 30.2 28.6 18.3 49 7.7 WSW 24 37 13 20 1007.8 1006.8 0.2
24/03:30pm 30.1 28.2 18.5 49 7.5 WSW 26 35 14 19 1008.0 1007.0 0.2
24/03:00pm 30.3 28.6 19.0 50 7.4 WSW 26 37 14 20 1008.0 1007.0 0.2
24/02:30pm 30.7 29.4 19.1 50 7.6 W 24 32 13 17 1008.1 1007.1 0.2
24/02:00pm 30.6 30.2 19.3 51 7.4 WSW 20 32 11 17 1008.3 1007.3 0.2
24/01:30pm 30.5 28.1 18.2 47 8.0 W 28 37 15 20 1008.6 1007.6 0.2
24/01:00pm 30.1 28.3 19.5 53 7.0 WNW 28 37 15 20 1009.1 1008.1 0.2
24/12:30pm 29.1 26.9 18.8 53 6.7 NW 28 39 15 21 1009.8 1008.7 0.2
24/12:00pm 29.7 28.5 20.8 58 6.0 NW 28 37 15 20 1010.3 1009.2 0.2
24/11:30am 29.0 26.8 20.4 59 5.7 NW 32 39 17 21 1010.7 1009.6 0.2
24/11:00am 27.1 25.6 20.2 66 4.5 NW 28 33 15 18 1011.1 1010.1 0.2
24/10:30am 26.7 25.5 20.8 70 3.9 NNW 28 33 15 18 1011.4 1010.4 0.2
24/10:00am 25.6 24.5 20.2 72 3.5 NNW 26 35 14 19 1011.7 1010.7 0.2
24/09:30am 25.1 25.1 21.0 78 2.7 N 22 32 12 17 1011.8 1010.8 0.0
24/09:00am 23.6 23.4 19.3 77 2.8 NNE 19 26 10 14 1012.2 1011.2 25.0
24/08:30am 22.8 22.3 19.2 80 2.3 NNE 20 26 11 14 1012.3 1011.3 25.0

Other formats

Comma delimited format used in spreadsheet applications
http://www.bom.gov.au/fwo/IDQ60801/IDQ60801.94346.axf

JavaScript Object Notation format (JSON) in row-major order
http://www.bom.gov.au/fwo/IDQ60801/IDQ60801.94346.json

Data quality

Most of these data are generated automatically and are frequently updated. Quality checks on data are not normally performed. It is possible for incorrect values to appear. Refer to information at About Latest Weather Observations and please check the disclaimer before using these data.